Time;durP1;ratioP1;P1;durP2;ratioP2;P2;SDS_P1;SDS_P2;PMS_P1;PMS_P2;Temp;Humidity;BMP_temperature;BMP_pressure;BME280_temperature;BME280_humidity;BME280_pressure;Samples;Min_cycle;Max_cycle;Signal;HPM_P1;HPM_P2
2022/08/19 00:01:47;;;;;;;3.38;1.85;;;20.10;99.90;;;;;;5034253;28;20042;-67
2022/08/19 00:04:20;;;;;;;4.40;2.22;;;20.10;99.90;;;;;;5018850;28;20057;-67
2022/08/19 00:06:48;;;;;;;3.22;2.15;;;20.10;99.90;;;;;;5010556;28;20516;-67
2022/08/19 00:09:16;;;;;;;3.78;2.50;;;20.20;99.90;;;;;;4994564;28;20494;-68
2022/08/19 00:11:43;;;;;;;2.50;2.10;;;20.20;99.90;;;;;;5011288;28;20056;-67
2022/08/19 00:14:11;;;;;;;3.65;2.65;;;20.20;99.90;;;;;;5030376;28;20046;-68
2022/08/19 00:16:38;;;;;;;5.68;2.25;;;20.20;99.90;;;;;;5013278;28;20053;-67
2022/08/19 00:19:05;;;;;;;4.38;2.42;;;20.20;99.90;;;;;;5029241;28;20053;-68
2022/08/19 00:21:32;;;;;;;4.45;2.30;;;20.20;99.90;;;;;;5016057;28;20054;-68
2022/08/19 00:24:00;;;;;;;5.75;2.50;;;20.20;99.90;;;;;;5040378;28;20053;-68
2022/08/19 00:26:27;;;;;;;5.00;2.50;;;20.20;99.90;;;;;;5013935;28;20046;-67
2022/08/19 00:28:54;;;;;;;5.03;2.97;;;20.20;99.90;;;;;;5025344;28;20046;-67
2022/08/19 00:31:21;;;;;;;7.13;2.75;;;20.20;99.90;;;;;;5008494;28;20128;-67
2022/08/19 00:33:50;;;;;;;5.75;2.35;;;20.20;99.90;;;;;;5010646;28;20088;-68
2022/08/19 00:36:17;;;;;;;4.80;2.38;;;20.20;99.90;;;;;;5006253;28;20406;-68
2022/08/19 00:38:44;;;;;;;5.78;2.67;;;20.20;99.90;;;;;;5013733;28;20054;-68
2022/08/19 00:41:14;;;;;;;4.07;2.53;;;20.20;99.90;;;;;;5008660;28;20062;-68
2022/08/19 00:43:41;;;;;;;4.07;2.22;;;20.20;99.90;;;;;;5022047;28;20057;-68
2022/08/19 00:46:08;;;;;;;4.65;2.50;;;20.20;99.90;;;;;;5017334;28;20037;-68
2022/08/19 00:48:36;;;;;;;5.10;2.45;;;20.30;99.90;;;;;;5019450;28;20053;-68
2022/08/19 00:51:04;;;;;;;3.92;3.05;;;20.30;99.90;;;;;;5028973;28;20048;-68
2022/08/19 00:53:31;;;;;;;4.13;2.40;;;20.30;99.90;;;;;;4990217;28;20050;-68
2022/08/19 00:55:58;;;;;;;3.75;2.10;;;20.30;99.90;;;;;;5008061;28;20488;-68
2022/08/19 00:58:28;;;;;;;5.60;2.03;;;20.30;99.90;;;;;;5008880;28;20046;-68
2022/08/19 01:00:55;;;;;;;5.47;2.85;;;20.30;99.90;;;;;;5003899;28;20397;-68
2022/08/19 01:03:22;;;;;;;4.38;2.13;;;20.40;99.90;;;;;;5034661;28;20049;-68
2022/08/19 01:05:49;;;;;;;4.63;2.30;;;20.40;99.90;;;;;;5014766;28;20046;-68
2022/08/19 01:08:17;;;;;;;7.80;2.58;;;20.30;99.90;;;;;;5021651;28;20044;-68
2022/08/19 01:10:49;;;;;;;6.07;2.88;;;20.30;99.90;;;;;;5012436;28;20049;-68
2022/08/19 01:13:19;;;;;;;6.68;3.10;;;20.20;99.90;;;;;;5013478;28;20046;-68
2022/08/19 01:15:52;;;;;;;5.88;2.55;;;20.20;99.90;;;;;;4996419;28;20056;-68
2022/08/19 01:18:19;;;;;;;5.55;2.67;;;20.10;99.90;;;;;;5029126;28;20401;-68
2022/08/19 01:20:46;;;;;;;5.57;2.50;;;20.10;99.90;;;;;;5007969;28;20512;-68
2022/08/19 01:23:13;;;;;;;6.38;2.85;;;20.10;99.90;;;;;;5010150;28;20531;-68
2022/08/19 01:25:51;;;;;;;6.07;2.72;;;20.20;99.90;;;;;;5009780;28;20054;-68
2022/08/19 01:28:23;;;;;;;4.90;3.03;;;20.10;99.90;;;;;;5024879;28;20064;-68
2022/08/19 01:31:07;;;;;;;3.65;2.65;;;20.20;99.90;;;;;;5023180;28;20054;-68
2022/08/19 01:33:34;;;;;;;4.53;2.70;;;20.20;99.90;;;;;;5029491;28;20058;-68
2022/08/19 01:36:09;;;;;;;4.43;2.92;;;20.20;99.90;;;;;;5026399;28;20049;-68
2022/08/19 01:38:37;;;;;;;6.40;3.22;;;20.20;99.90;;;;;;5024443;28;20054;-68
2022/08/19 01:41:11;;;;;;;4.38;3.35;;;20.10;99.90;;;;;;5024537;28;20038;-68
2022/08/19 01:43:38;;;;;;;4.07;3.00;;;20.20;99.90;;;;;;4996482;28;20054;-68
2022/08/19 01:46:25;;;;;;;6.97;4.43;;;20.20;99.90;;;;;;5000549;28;20104;-68
2022/08/19 01:48:51;;;;;;;5.25;3.63;;;20.20;99.90;;;;;;5015462;28;20061;-68
2022/08/19 01:51:18;;;;;;;4.38;2.75;;;20.20;99.90;;;;;;5014390;28;20050;-68
2022/08/19 01:53:47;;;;;;;4.68;3.17;;;20.20;99.90;;;;;;5012583;28;20072;-68
2022/08/19 01:56:14;;;;;;;6.38;3.97;;;20.20;99.90;;;;;;5011723;28;20046;-68
2022/08/19 01:58:55;;;;;;;5.38;3.83;;;20.20;99.90;;;;;;4996551;28;20057;-68
2022/08/19 02:01:22;;;;;;;7.07;4.05;;;20.20;99.90;;;;;;5039405;28;20046;-68
2022/08/19 02:03:53;;;;;;;6.93;3.95;;;20.20;99.90;;;;;;5019135;28;20055;-68
2022/08/19 02:06:23;;;;;;;5.70;3.80;;;20.10;99.90;;;;;;5032906;28;20503;-68
2022/08/19 02:08:52;;;;;;;5.90;4.10;;;20.10;99.90;;;;;;5015558;28;20055;-68
2022/08/19 02:11:31;;;;;;;7.72;4.75;;;20.10;99.90;;;;;;5029553;28;20055;-68
2022/08/19 02:13:58;;;;;;;7.22;4.85;;;20.10;99.90;;;;;;5013665;28;20111;-68
2022/08/19 02:16:25;;;;;;;7.68;4.35;;;20.20;99.90;;;;;;5021167;28;20068;-68
2022/08/19 02:18:52;;;;;;;5.30;4.28;;;20.20;99.90;;;;;;5013089;28;20056;-68
2022/08/19 02:21:20;;;;;;;8.05;4.35;;;20.20;99.90;;;;;;5023945;28;20046;-68
2022/08/19 02:23:47;;;;;;;7.22;4.53;;;20.20;99.90;;;;;;5016815;28;20052;-68
2022/08/19 02:26:14;;;;;;;7.10;5.53;;;20.20;99.90;;;;;;5025594;28;20045;-68
2022/08/19 02:28:41;;;;;;;7.13;4.88;;;20.30;99.90;;;;;;5015591;28;20060;-68
2022/08/19 02:31:14;;;;;;;9.52;6.10;;;20.30;99.90;;;;;;5029606;28;20053;-69
2022/08/19 02:33:41;;;;;;;7.35;4.45;;;20.30;99.90;;;;;;5012801;28;20124;-68
2022/08/19 02:36:09;;;;;;;7.85;4.75;;;20.30;99.90;;;;;;5012409;28;20493;-68
2022/08/19 02:38:36;;;;;;;7.95;4.40;;;20.30;99.90;;;;;;5024016;28;20064;-68
2022/08/19 02:41:05;;;;;;;7.63;4.50;;;20.30;99.90;;;;;;5022250;28;20052;-68
2022/08/19 02:43:36;;;;;;;6.75;4.90;;;20.30;99.90;;;;;;5012527;28;20045;-68
2022/08/19 02:46:21;;;;;;;5.72;4.00;;;20.30;99.90;;;;;;5027141;28;20038;-68
2022/08/19 02:48:52;;;;;;;6.10;4.40;;;20.30;99.90;;;;;;5026026;28;20091;-68
2022/08/19 02:51:23;;;;;;;5.95;4.15;;;20.30;99.90;;;;;;5016796;28;20049;-68
2022/08/19 02:53:50;;;;;;;7.22;4.30;;;20.30;99.90;;;;;;5014382;28;20485;-68
2022/08/19 02:56:18;;;;;;;7.05;3.97;;;20.30;99.90;;;;;;5012612;28;20049;-68
2022/08/19 02:58:45;;;;;;;7.60;3.83;;;20.30;99.90;;;;;;5011375;28;20493;-68
2022/08/19 03:01:31;;;;;;;7.63;4.35;;;20.30;99.90;;;;;;5016970;28;20051;-68
2022/08/19 03:04:00;;;;;;;7.35;4.00;;;20.30;99.90;;;;;;5035160;28;20104;-68
2022/08/19 03:06:27;;;;;;;5.13;3.53;;;20.30;99.90;;;;;;5011791;28;20050;-68
2022/08/19 03:08:54;;;;;;;9.02;3.70;;;20.30;99.90;;;;;;5013641;28;20043;-68
2022/08/19 03:11:24;;;;;;;6.93;3.90;;;20.30;99.90;;;;;;5010877;28;20053;-68
2022/08/19 03:13:53;;;;;;;9.00;4.78;;;20.30;99.90;;;;;;5036895;28;20061;-68
2022/08/19 03:16:21;;;;;;;6.07;4.43;;;20.30;99.90;;;;;;5014666;28;20463;-68
2022/08/19 03:18:48;;;;;;;6.43;4.03;;;20.30;99.90;;;;;;5032099;28;20295;-68
2022/08/19 03:21:18;;;;;;;6.65;4.45;;;20.30;99.90;;;;;;5027766;28;20115;-68
2022/08/19 03:23:45;;;;;;;5.55;3.70;;;20.30;99.90;;;;;;5030270;28;20049;-68
2022/08/19 03:26:14;;;;;;;6.75;3.47;;;20.30;99.90;;;;;;5010924;28;20049;-68
2022/08/19 03:28:43;;;;;;;5.22;3.78;;;20.30;99.90;;;;;;5013442;28;20041;-68
2022/08/19 03:31:23;;;;;;;5.57;4.05;;;20.30;99.90;;;;;;5001281;28;20049;-68
2022/08/19 03:34:12;;;;;;;5.78;3.88;;;20.30;99.90;;;;;;5016559;28;20111;-68
2022/08/19 03:36:39;;;;;;;8.20;4.30;;;20.30;99.90;;;;;;5017610;28;20049;-68
2022/08/19 03:39:08;;;;;;;8.50;4.10;;;20.30;99.90;;;;;;4994642;28;20379;-68
2022/08/19 03:41:39;;;;;;;7.43;4.32;;;20.30;99.90;;;;;;5012571;28;20152;-68
2022/08/19 03:44:11;;;;;;;6.38;5.03;;;20.30;99.90;;;;;;5024134;28;20108;-68
2022/08/19 03:46:44;;;;;;;8.27;4.95;;;20.30;99.90;;;;;;5013160;28;20053;-68
2022/08/19 03:49:11;;;;;;;7.53;4.55;;;20.20;99.90;;;;;;5011321;28;20061;-68
2022/08/19 03:51:40;;;;;;;8.67;5.17;;;20.10;99.90;;;;;;5033151;28;20129;-68
2022/08/19 03:54:08;;;;;;;9.43;5.10;;;19.90;99.90;;;;;;5018625;28;20057;-68
2022/08/19 03:56:35;;;;;;;6.38;5.20;;;19.80;99.90;;;;;;5014903;28;20077;-68
2022/08/19 03:59:03;;;;;;;9.60;5.88;;;19.70;99.90;;;;;;5001012;28;20050;-68
2022/08/19 04:01:30;;;;;;;9.38;5.53;;;19.70;99.90;;;;;;5007953;28;20046;-68
2022/08/19 04:04:01;;;;;;;9.23;5.35;;;19.60;99.90;;;;;;5014516;28;20081;-68
2022/08/19 04:06:32;;;;;;;7.15;5.70;;;19.60;99.90;;;;;;5018195;28;20054;-68
2022/08/19 04:08:59;;;;;;;7.75;4.80;;;19.70;99.90;;;;;;5024269;28;20050;-68
2022/08/19 04:11:28;;;;;;;8.07;6.22;;;19.70;99.90;;;;;;5015879;28;20079;-68
2022/08/19 04:14:14;;;;;;;7.55;5.00;;;19.70;99.90;;;;;;4995815;28;20057;-68
2022/08/19 04:16:42;;;;;;;7.93;5.55;;;19.70;99.90;;;;;;5000035;28;20051;-68
2022/08/19 04:19:09;;;;;;;6.30;5.20;;;19.80;99.90;;;;;;5016767;28;20038;-68
2022/08/19 04:21:36;;;;;;;6.72;5.72;;;19.80;99.90;;;;;;5015122;28;20061;-68
2022/08/19 04:24:03;;;;;;;7.28;5.20;;;19.80;99.90;;;;;;5025008;28;20088;-68
2022/08/19 04:26:32;;;;;;;7.07;5.30;;;19.80;99.90;;;;;;5013963;28;20182;-68
2022/08/19 04:29:00;;;;;;;7.07;5.20;;;19.70;99.90;;;;;;5024759;28;20057;-68
2022/08/19 04:31:29;;;;;;;13.45;6.07;;;19.80;99.90;;;;;;5029649;28;20435;-68
2022/08/19 04:33:56;;;;;;;8.13;5.75;;;19.80;99.90;;;;;;5014141;28;20046;-68
2022/08/19 04:36:30;;;;;;;7.95;5.28;;;19.80;99.90;;;;;;4994759;28;20050;-68
2022/08/19 04:38:59;;;;;;;8.13;5.72;;;19.80;99.90;;;;;;5010252;28;20054;-67
2022/08/19 04:44:12;;;;;;;6.30;4.85;;;19.80;99.90;;;;;;4994237;28;20050;-68
2022/08/19 04:46:39;;;;;;;7.40;5.85;;;19.80;99.90;;;;;;5010505;28;20065;-68
2022/08/19 04:49:21;;;;;;;7.18;5.55;;;19.80;99.90;;;;;;4994567;28;20050;-68
2022/08/19 04:51:49;;;;;;;7.30;5.38;;;19.80;99.90;;;;;;5010899;28;20072;-68
2022/08/19 04:54:16;;;;;;;7.20;5.57;;;19.70;99.90;;;;;;5024883;28;20048;-68
2022/08/19 04:57:06;;;;;;;7.63;5.18;;;19.70;99.90;;;;;;5030470;28;20041;-68
2022/08/19 04:59:33;;;;;;;6.18;5.57;;;19.70;99.90;;;;;;5041325;28;20045;-68
2022/08/19 05:02:00;;;;;;;6.55;5.20;;;19.70;99.90;;;;;;5018208;28;20049;-68
2022/08/19 05:04:32;;;;;;;6.60;4.85;;;19.70;99.90;;;;;;5015027;28;20069;-68
2022/08/19 05:07:00;;;;;;;6.38;5.30;;;19.70;99.90;;;;;;5019463;28;20465;-68
2022/08/19 05:09:28;;;;;;;8.75;5.15;;;19.70;99.90;;;;;;5005187;28;20436;-68
2022/08/19 05:12:15;;;;;;;7.97;5.40;;;19.70;99.90;;;;;;5015662;28;20096;-68
2022/08/19 05:14:43;;;;;;;5.93;4.28;;;19.80;99.90;;;;;;5013567;28;20054;-68
2022/08/19 05:17:09;;;;;;;5.38;4.25;;;19.80;99.90;;;;;;5015188;28;20866;-68
2022/08/19 05:22:40;;;;;;;5.93;3.78;;;19.80;99.90;;;;;;5014712;28;20056;-68
2022/08/19 05:25:11;;;;;;;4.05;3.08;;;19.80;99.90;;;;;;5014743;28;20045;-68
2022/08/19 05:27:40;;;;;;;4.43;3.17;;;19.80;99.90;;;;;;5010384;28;20447;-68
2022/08/19 05:30:07;;;;;;;6.68;3.80;;;19.80;99.90;;;;;;5023792;28;20049;-67
2022/08/19 05:32:34;;;;;;;5.85;3.10;;;19.80;99.90;;;;;;5022814;28;20041;-68
2022/08/19 05:35:01;;;;;;;6.03;4.88;;;19.90;99.90;;;;;;4997646;28;20049;-68
2022/08/19 05:37:28;;;;;;;4.53;3.17;;;19.90;99.90;;;;;;5016732;28;20523;-68
2022/08/19 05:39:55;;;;;;;4.82;3.70;;;19.90;99.90;;;;;;5019870;28;20038;-68
2022/08/19 05:42:22;;;;;;;4.25;3.00;;;19.90;99.90;;;;;;5046865;28;20072;-68
2022/08/19 05:44:50;;;;;;;5.15;3.08;;;19.90;99.90;;;;;;5013991;28;20050;-68
2022/08/19 05:47:19;;;;;;;3.88;2.53;;;19.90;99.90;;;;;;5006300;28;20094;-68
2022/08/19 05:49:46;;;;;;;4.82;2.17;;;19.90;99.90;;;;;;5030641;28;20049;-68
2022/08/19 05:52:15;;;;;;;3.60;2.35;;;20.00;99.90;;;;;;5027131;28;20041;-68
2022/08/19 05:54:47;;;;;;;2.58;1.75;;;20.00;99.90;;;;;;5025417;28;20050;-68
2022/08/19 05:57:18;;;;;;;2.60;1.95;;;20.10;99.90;;;;;;5024765;28;20076;-68
2022/08/19 05:59:51;;;;;;;2.63;1.90;;;20.30;99.90;;;;;;5019354;28;20041;-68
2022/08/19 06:02:26;;;;;;;1.85;1.52;;;20.30;99.90;;;;;;5016338;28;20041;-68
2022/08/19 06:04:53;;;;;;;2.25;1.60;;;20.40;99.90;;;;;;5026455;28;20046;-68
2022/08/19 06:07:20;;;;;;;2.40;1.30;;;20.50;99.90;;;;;;5007172;28;20049;-68
2022/08/19 06:09:47;;;;;;;2.80;1.20;;;20.60;99.90;;;;;;5021133;28;20052;-67
2022/08/19 06:12:32;;;;;;;;;;;20.60;99.90;;;;;;5021655;28;20046;-67
2022/08/19 06:15:00;;;;;;;2.40;1.20;;;20.70;99.90;;;;;;5027201;28;19925;-68
2022/08/19 06:17:29;;;;;;;1.92;1.40;;;20.70;99.90;;;;;;5011883;28;20605;-68
2022/08/19 06:19:58;;;;;;;2.22;1.00;;;20.80;99.90;;;;;;5012140;28;20456;-68
2022/08/19 06:22:25;;;;;;;4.10;1.40;;;20.80;99.90;;;;;;5023045;28;20540;-67
2022/08/19 06:24:54;;;;;;;6.78;5.22;;;20.90;99.90;;;;;;5007155;28;20050;-75
2022/08/19 06:27:21;;;;;;;4.70;2.28;;;20.90;99.90;;;;;;5008812;28;20512;-73
2022/08/19 06:29:48;;;;;;;1.70;1.10;;;20.90;99.90;;;;;;5013306;28;20374;-70
2022/08/19 06:32:16;;;;;;;1.42;1.10;;;20.90;99.90;;;;;;5031652;28;20050;-72
2022/08/19 06:34:43;;;;;;;1.60;1.00;;;20.90;99.90;;;;;;5012428;28;20061;-71
2022/08/19 06:37:11;;;;;;;1.60;0.80;;;20.90;99.90;;;;;;5012203;28;20060;-69
2022/08/19 06:39:39;;;;;;;34.90;30.77;;;20.90;99.90;;;;;;5020249;28;20056;-67
2022/08/19 06:42:08;;;;;;;7.47;4.88;;;20.90;99.90;;;;;;5003926;28;20057;-68
2022/08/19 06:44:38;;;;;;;2.85;1.73;;;20.90;99.90;;;;;;5013187;28;20121;-67
2022/08/19 06:47:11;;;;;;;1.77;1.05;;;20.90;99.90;;;;;;5017926;28;20905;-70
2022/08/19 06:49:48;;;;;;;1.50;0.90;;;21.00;99.90;;;;;;5004889;28;20541;-68
2022/08/19 06:52:15;;;;;;;3.40;1.00;;;21.00;99.90;;;;;;5020827;28;20045;-67
2022/08/19 06:54:42;;;;;;;1.85;1.00;;;21.00;99.90;;;;;;5005171;28;20172;-68
2022/08/19 06:57:23;;;;;;;5.18;1.00;;;21.00;99.90;;;;;;5019647;28;20096;-67
2022/08/19 06:59:50;;;;;;;2.47;1.00;;;21.00;99.90;;;;;;5042361;28;20038;-69
2022/08/19 07:02:17;;;;;;;1.60;0.80;;;20.90;99.90;;;;;;5014933;28;20050;-69
2022/08/19 07:04:50;;;;;;;3.33;1.08;;;20.90;99.90;;;;;;5011352;28;20057;-73
2022/08/19 07:07:18;;;;;;;;;;;20.90;99.90;;;;;;5016890;28;20084;-71
2022/08/19 07:09:48;;;;;;;2.22;0.70;;;20.80;99.90;;;;;;5017074;28;20229;-70
2022/08/19 07:12:28;;;;;;;2.88;0.90;;;20.90;99.90;;;;;;5028207;28;20562;-70
2022/08/19 07:14:57;;;;;;;2.25;0.85;;;20.90;99.90;;;;;;5011765;28;20057;-70
2022/08/19 07:17:24;;;;;;;2.85;1.10;;;20.90;99.90;;;;;;5023775;28;20045;-70
2022/08/19 07:19:51;;;;;;;2.58;1.33;;;20.90;99.90;;;;;;5024199;28;20041;-71
2022/08/19 07:22:22;;;;;;;3.30;0.90;;;21.00;99.90;;;;;;5030844;28;20052;-70
2022/08/19 07:24:50;;;;;;;3.53;0.95;;;21.00;99.90;;;;;;5027563;28;20426;-67
2022/08/19 07:27:18;;;;;;;1.00;0.80;;;21.00;99.90;;;;;;5018207;28;20092;-67
2022/08/19 07:29:53;;;;;;;1.67;0.80;;;21.00;99.90;;;;;;5013349;28;20095;-67
2022/08/19 07:32:26;;;;;;;1.08;0.75;;;21.00;99.90;;;;;;5017615;28;20072;-69
2022/08/19 07:34:53;;;;;;;3.33;1.42;;;21.00;99.90;;;;;;5007071;28;20081;-69
2022/08/19 07:37:20;;;;;;;1.80;0.82;;;20.90;99.90;;;;;;5011723;28;20140;-72
2022/08/19 07:39:47;;;;;;;80.30;72.03;;;20.90;99.90;;;;;;5016630;28;20038;-69
2022/08/19 07:42:14;;;;;;;19.33;16.10;;;21.00;99.90;;;;;;5025107;28;20096;-69
2022/08/19 07:44:41;;;;;;;3.75;2.83;;;21.10;99.90;;;;;;5020009;28;20073;-69
2022/08/19 07:47:17;;;;;;;3.67;1.50;;;21.20;99.90;;;;;;5027965;28;20047;-72
2022/08/19 07:50:05;;;;;;;1.50;0.90;;;21.40;99.90;;;;;;5018765;28;20073;-70
2022/08/19 07:52:34;;;;;;;2.67;0.80;;;21.40;99.90;;;;;;5018532;28;20314;-69
2022/08/19 07:55:03;;;;;;;1.08;0.70;;;21.40;99.90;;;;;;5018144;28;20505;-70
2022/08/19 07:57:30;;;;;;;2.72;0.90;;;21.50;99.90;;;;;;5012709;28;20382;-69
2022/08/19 07:59:57;;;;;;;2.03;1.08;;;21.60;99.90;;;;;;5019252;28;20103;-70
2022/08/19 08:02:24;;;;;;;64.78;57.85;;;21.60;99.90;;;;;;5015544;28;20053;-70
2022/08/19 08:10:29;;;;;;;3.80;2.97;;;22.00;99.90;;;;;;5010196;28;20104;-68
2022/08/19 08:12:57;;;;;;;3.13;1.58;;;22.20;99.90;;;;;;5024701;28;20413;-79
2022/08/19 08:15:38;;;;;;;2.67;1.10;;;22.30;99.90;;;;;;5030916;28;20046;-72
2022/08/19 08:18:11;;;;;;;3.80;1.38;;;22.30;99.90;;;;;;5027034;28;20057;-68
2022/08/19 08:20:40;;;;;;;4.07;1.60;;;22.40;99.90;;;;;;5024357;28;20052;-70
2022/08/19 08:23:22;;;;;;;2.67;1.60;;;22.50;99.90;;;;;;5025395;28;20053;-69
2022/08/19 08:25:50;;;;;;;3.10;1.05;;;22.50;99.90;;;;;;5015298;28;20042;-71
2022/08/19 08:28:17;;;;;;;1.70;0.90;;;22.60;99.90;;;;;;5015910;28;20489;-69
2022/08/19 08:30:47;;;;;;;2.58;1.08;;;22.80;99.90;;;;;;5006113;28;20056;-68
2022/08/19 08:33:21;;;;;;;1.83;0.95;;;22.90;99.90;;;;;;5012259;28;20057;-70
2022/08/19 08:36:07;;;;;;;1.65;0.77;;;23.10;99.90;;;;;;5024376;28;20057;-72
2022/08/19 08:38:36;;;;;;;2.17;1.08;;;23.10;99.90;;;;;;4999404;28;20052;-69
2022/08/19 08:41:27;;;;;;;3.70;1.08;;;23.30;99.90;;;;;;5028992;28;20087;-68
2022/08/19 08:43:55;;;;;;;3.95;1.08;;;23.40;99.90;;;;;;5030119;28;20053;-72
2022/08/19 08:46:40;;;;;;;2.80;1.10;;;23.40;99.90;;;;;;5013106;28;20056;-69
2022/08/19 08:49:31;;;;;;;4.78;1.13;;;23.50;99.90;;;;;;5014772;28;20056;-69
2022/08/19 08:52:11;;;;;;;7.80;1.30;;;23.50;99.90;;;;;;5013298;28;20049;-71
2022/08/19 08:54:43;;;;;;;2.42;0.90;;;23.50;99.90;;;;;;5013231;28;20046;-70
2022/08/19 08:57:36;;;;;;;1.10;0.70;;;23.50;99.90;;;;;;5025066;28;20045;-69
2022/08/19 09:00:21;;;;;;;2.55;1.10;;;23.50;99.90;;;;;;5019497;28;20038;-70
2022/08/19 09:02:48;;;;;;;4.82;0.95;;;23.50;99.90;;;;;;5003600;28;20053;-70
2022/08/19 09:05:19;;;;;;;3.60;1.20;;;23.30;99.90;;;;;;5027716;28;20535;-69
2022/08/19 09:08:14;;;;;;;2.83;1.00;;;23.30;99.90;;;;;;5033285;28;20582;-72
2022/08/19 09:10:49;;;;;;;4.38;1.00;;;23.10;99.90;;;;;;5014700;28;20540;-69
2022/08/19 09:13:27;;;;;;;2.72;0.90;;;22.80;99.90;;;;;;4978982;28;20145;-69
2022/08/19 09:16:03;;;;;;;3.10;1.10;;;22.70;99.90;;;;;;5025535;28;20069;-70
2022/08/19 09:18:54;;;;;;;4.28;1.55;;;22.70;99.90;;;;;;5015418;28;20052;-68
2022/08/19 09:21:22;;;;;;;2.15;1.30;;;22.60;99.90;;;;;;5019419;28;20038;-70
2022/08/19 09:23:58;;;;;;;2.58;1.40;;;22.70;99.90;;;;;;5022204;28;20089;-69
2022/08/19 09:26:26;;;;;;;2.28;1.10;;;22.80;99.90;;;;;;5035379;28;20523;-69
2022/08/19 09:29:13;;;;;;;2.45;0.88;;;23.00;99.90;;;;;;5000393;28;20054;-69
2022/08/19 09:31:40;;;;;;;4.15;1.20;;;23.20;99.90;;;;;;4997468;28;20490;-69
2022/08/19 09:34:08;;;;;;;4.60;1.00;;;23.20;99.90;;;;;;5015028;28;20046;-72
2022/08/19 09:36:53;;;;;;;2.17;1.40;;;23.40;99.90;;;;;;4993057;28;20042;-70
2022/08/19 09:39:20;;;;;;;4.65;1.58;;;23.50;99.90;;;;;;5021550;28;20058;-69
2022/08/19 09:41:49;;;;;;;2.10;1.00;;;23.50;99.90;;;;;;5023367;28;20485;-69
2022/08/19 09:44:17;;;;;;;3.40;1.05;;;23.60;99.90;;;;;;5026839;28;20050;-70
2022/08/19 09:46:46;;;;;;;2.67;1.10;;;23.60;99.90;;;;;;5005787;28;20505;-69
2022/08/19 09:49:14;;;;;;;4.30;1.52;;;23.70;99.90;;;;;;5011321;28;20137;-70
2022/08/19 09:51:44;;;;;;;3.08;0.93;;;23.80;99.90;;;;;;5014372;28;20049;-69
2022/08/19 09:54:16;;;;;;;2.28;1.10;;;23.80;99.90;;;;;;5028048;28;20050;-68
2022/08/19 09:56:49;;;;;;;3.28;0.93;;;23.70;99.90;;;;;;4991409;28;20046;-69
2022/08/19 09:59:16;;;;;;;3.60;1.15;;;23.60;99.90;;;;;;4998546;28;20068;-68
2022/08/19 10:01:44;;;;;;;1.98;0.82;;;23.50;99.90;;;;;;5020328;28;20041;-69
2022/08/19 10:04:11;;;;;;;3.25;1.00;;;23.50;99.90;;;;;;5025772;28;20085;-68
2022/08/19 10:06:47;;;;;;;9.57;1.85;;;23.50;99.90;;;;;;5011357;28;20082;-69
2022/08/19 10:09:19;;;;;;;2.40;1.05;;;23.60;99.90;;;;;;5003449;28;20092;-69
2022/08/19 10:12:00;;;;;;;2.28;1.60;;;23.60;99.90;;;;;;5004920;28;20049;-69
2022/08/19 10:14:28;;;;;;;13.30;1.80;;;23.70;99.90;;;;;;5028163;28;20053;-70
2022/08/19 10:16:56;;;;;;;4.07;1.50;;;23.90;99.90;;;;;;5030782;28;20292;-69
2022/08/19 10:19:25;;;;;;;3.95;1.15;;;24.10;99.90;;;;;;5025160;28;20159;-70
2022/08/19 10:21:53;;;;;;;5.13;1.15;;;24.30;99.90;;;;;;5033335;28;20084;-70
2022/08/19 10:24:24;;;;;;;5.10;1.08;;;24.50;99.90;;;;;;5027998;28;20053;-69
2022/08/19 10:26:53;;;;;;;2.83;1.20;;;24.50;99.90;;;;;;5033144;28;20046;-70
2022/08/19 10:29:24;;;;;;;5.85;1.40;;;24.50;99.90;;;;;;4996298;28;20082;-69
2022/08/19 10:32:00;;;;;;;4.70;1.40;;;24.40;99.90;;;;;;5026176;28;20048;-70
2022/08/19 10:34:29;;;;;;;3.13;1.95;;;24.30;99.90;;;;;;5002563;28;20649;-69
2022/08/19 10:36:57;;;;;;;4.20;1.48;;;24.30;99.90;;;;;;5023631;28;20372;-69
2022/08/19 10:39:30;;;;;;;10.10;1.83;;;24.20;99.90;;;;;;5017202;28;20069;-69
2022/08/19 10:42:10;;;;;;;4.93;1.80;;;24.20;99.90;;;;;;5007824;28;20057;-71
2022/08/19 10:44:37;;;;;;;3.40;1.55;;;24.10;99.90;;;;;;5031233;28;20046;-71
2022/08/19 10:47:04;;;;;;;4.93;1.20;;;23.90;99.90;;;;;;5018526;28;20046;-71
2022/08/19 10:52:41;;;;;;;5.38;1.52;;;24.00;99.90;;;;;;5023731;28;20045;-70
2022/08/19 10:58:25;;;;;;;12.80;2.35;;;24.20;99.90;;;;;;5001856;28;20541;-66
2022/08/19 11:00:57;;;;;;;4.18;1.40;;;24.40;99.90;;;;;;4997193;28;20058;-71
2022/08/19 11:03:25;;;;;;;6.10;1.63;;;24.40;99.90;;;;;;4971250;28;20061;-73
2022/08/19 11:06:06;;;;;;;2.67;1.40;;;24.40;99.90;;;;;;5028426;28;20068;-67
2022/08/19 11:08:34;;;;;;;5.32;1.40;;;24.40;99.90;;;;;;5023517;28;20508;-75
2022/08/19 11:11:02;;;;;;;5.63;1.63;;;24.30;99.90;;;;;;5013012;28;20140;-75
2022/08/19 11:13:37;;;;;;;4.60;2.03;;;24.20;99.90;;;;;;5007314;28;20096;-73
2022/08/19 11:16:06;;;;;;;4.43;1.33;;;24.10;99.90;;;;;;5002399;28;20057;-79
2022/08/19 11:18:36;;;;;;;3.53;1.45;;;24.20;99.90;;;;;;5022062;28;20045;-74
2022/08/19 11:21:07;;;;;;;;;;;24.30;99.90;;;;;;5030222;28;20048;-72
2022/08/19 11:23:36;;;;;;;8.60;1.35;;;24.50;99.90;;;;;;5020368;28;19921;-72
2022/08/19 11:26:03;;;;;;;5.95;1.65;;;24.60;99.90;;;;;;5038125;28;20056;-69
2022/08/19 11:28:30;;;;;;;5.93;2.45;;;24.80;99.90;;;;;;5021030;28;20050;-69
2022/08/19 11:30:57;;;;;;;3.72;1.80;;;24.90;99.90;;;;;;4996021;28;20404;-69
2022/08/19 11:33:26;;;;;;;5.82;1.85;;;25.00;99.90;;;;;;5010920;28;20052;-68
2022/08/19 11:35:53;;;;;;;;;;;25.00;99.90;;;;;;5010538;28;20050;-70
2022/08/19 11:38:20;;;;;;;4.07;1.60;;;25.20;99.90;;;;;;5023616;28;20020;-71
2022/08/19 11:40:54;;;;;;;7.88;3.17;;;25.20;99.90;;;;;;5011871;28;20375;-71
2022/08/19 11:43:21;;;;;;;6.32;2.00;;;25.30;99.90;;;;;;5009241;28;20045;-70
2022/08/19 11:45:48;;;;;;;5.32;1.63;;;25.30;99.90;;;;;;5018953;28;20049;-71
2022/08/19 11:48:15;;;;;;;5.95;2.90;;;25.20;99.90;;;;;;5018904;28;20072;-69
2022/08/19 11:50:43;;;;;;;13.38;2.67;;;25.20;99.90;;;;;;5021447;28;20046;-72
2022/08/19 11:53:10;;;;;;;4.82;1.77;;;25.40;99.90;;;;;;5028689;28;20041;-70
2022/08/19 11:55:40;;;;;;;4.95;1.67;;;25.40;99.90;;;;;;5013395;28;20136;-75
2022/08/19 11:58:10;;;;;;;6.75;2.08;;;25.40;99.90;;;;;;5004089;28;20073;-75
2022/08/19 12:00:44;;;;;;;5.63;2.33;;;25.30;99.90;;;;;;5008779;28;20327;-70
2022/08/19 12:03:12;;;;;;;8.50;2.78;;;25.10;99.90;;;;;;5012960;28;20518;-70
2022/08/19 12:05:39;;;;;;;3.80;1.90;;;25.10;99.90;;;;;;5009607;28;20379;-75
2022/08/19 12:08:06;;;;;;;4.90;2.13;;;25.20;99.90;;;;;;5027667;28;20160;-73
2022/08/19 12:10:34;;;;;;;6.53;2.28;;;25.30;99.90;;;;;;5029346;28;20501;-74
2022/08/19 12:13:01;;;;;;;6.85;2.40;;;25.40;99.90;;;;;;5014916;28;20045;-77
2022/08/19 12:15:28;;;;;;;7.53;2.03;;;25.50;99.90;;;;;;5015664;28;20493;-70
2022/08/19 12:18:03;;;;;;;8.98;2.95;;;25.50;99.90;;;;;;5019114;28;20053;-70
2022/08/19 12:20:31;;;;;;;7.67;2.97;;;25.50;99.90;;;;;;5024831;28;20049;-71
2022/08/19 12:23:02;;;;;;;6.85;2.05;;;25.50;99.90;;;;;;5029407;28;20287;-69
2022/08/19 12:25:30;;;;;;;4.97;2.28;;;25.50;99.90;;;;;;5033846;28;20050;-69
2022/08/19 12:27:57;;;;;;;6.20;1.98;;;25.50;99.90;;;;;;5031107;28;20113;-69
2022/08/19 12:30:25;;;;;;;3.95;1.92;;;25.60;99.90;;;;;;5026381;28;20135;-69
2022/08/19 12:32:52;;;;;;;6.32;2.13;;;25.70;99.90;;;;;;5018935;28;20061;-70
2022/08/19 12:35:22;;;;;;;7.28;2.42;;;25.70;99.90;;;;;;5017409;28;20508;-66
2022/08/19 12:37:49;;;;;;;8.80;2.45;;;25.70;98.60;;;;;;5017428;28;20054;-66
2022/08/19 12:40:23;;;;;;;5.60;2.35;;;25.70;99.20;;;;;;5015985;28;20070;-66
2022/08/19 12:42:52;;;;;;;6.70;1.92;;;25.60;98.40;;;;;;5014812;28;20046;-67
2022/08/19 12:45:19;;;;;;;3.92;2.03;;;25.60;97.00;;;;;;5012026;28;20151;-66
2022/08/19 12:47:47;;;;;;;4.47;2.05;;;25.50;95.80;;;;;;5012712;28;20049;-71
2022/08/19 12:50:15;;;;;;;7.07;2.25;;;25.40;95.20;;;;;;5014681;28;20042;-64
2022/08/19 12:52:42;;;;;;;9.98;2.67;;;25.30;95.30;;;;;;5017947;28;20045;-67
2022/08/19 12:55:10;;;;;;;8.65;2.38;;;25.30;95.40;;;;;;5015633;28;20401;-66
2022/08/19 12:57:37;;;;;;;8.25;2.15;;;25.30;94.60;;;;;;5013361;28;20481;-66
2022/08/19 13:00:09;;;;;;;7.25;2.80;;;25.40;94.00;;;;;;5015300;28;20042;-67
2022/08/19 13:02:41;;;;;;;6.68;2.67;;;25.70;93.90;;;;;;5013019;28;20057;-66
2022/08/19 13:05:09;;;;;;;8.38;2.72;;;26.00;92.50;;;;;;5013118;28;20052;-68
2022/08/19 13:07:38;;;;;;;6.82;2.03;;;26.20;90.50;;;;;;5014790;28;20096;-66
2022/08/19 13:10:06;;;;;;;5.90;2.10;;;26.20;89.90;;;;;;5015384;28;20057;-67
2022/08/19 13:12:33;;;;;;;6.60;2.38;;;26.20;89.70;;;;;;5013436;28;20132;-66
2022/08/19 13:15:00;;;;;;;7.93;2.10;;;26.30;86.80;;;;;;5020227;28;20481;-68
2022/08/19 13:17:28;;;;;;;5.53;1.75;;;26.10;85.10;;;;;;5012373;28;20119;-67
2022/08/19 13:19:55;;;;;;;4.47;2.17;;;26.20;85.90;;;;;;5000528;28;20056;-67
2022/08/19 13:22:23;;;;;;;5.00;2.53;;;26.30;83.10;;;;;;5014900;28;20160;-66